Time;durP1;ratioP1;P1;durP2;ratioP2;P2;SDS_P1;SDS_P2;PMS_P1;PMS_P2;Temp;Humidity;BMP_temperature;BMP_pressure;BME280_temperature;BME280_humidity;BME280_pressure;Samples;Min_cycle;Max_cycle;Signal;HPM_P1;HPM_P2
2023/12/09 00:00:46;;;;;;;11.90;6.28;;;;;;;0.92;100.00;92777.19;2104432;28;20023;-80
2023/12/09 00:01:47;;;;;;;11.30;6.70;;;;;;;0.93;100.00;92771.59;2112287;28;20098;-81
2023/12/09 00:02:48;;;;;;;15.88;6.68;;;;;;;0.93;100.00;92784.00;2109071;28;20054;-76
2023/12/09 00:03:50;;;;;;;14.82;6.57;;;;;;;0.85;100.00;92766.63;2095293;28;20063;-78
2023/12/09 00:04:51;;;;;;;10.85;6.05;;;;;;;0.79;100.00;92776.72;2103901;27;20016;-81
2023/12/09 00:05:52;;;;;;;12.88;6.18;;;;;;;0.80;100.00;92764.34;2119233;27;20074;-79
2023/12/09 00:06:55;;;;;;;11.50;6.90;;;;;;;0.75;100.00;92770.69;2116736;27;20605;-78
2023/12/09 00:07:56;;;;;;;16.25;6.63;;;;;;;0.72;100.00;92774.78;2111456;28;20139;-80
2023/12/09 00:08:57;;;;;;;9.52;5.50;;;;;;;0.75;100.00;92768.03;2111806;28;20569;-78
2023/12/09 00:09:58;;;;;;;13.20;5.70;;;;;;;0.76;100.00;92777.44;2113730;27;20106;-80
2023/12/09 00:10:59;;;;;;;12.18;5.90;;;;;;;0.80;100.00;92775.59;2110025;28;20020;-78
2023/12/09 00:12:00;;;;;;;42.05;5.93;;;;;;;0.81;100.00;92779.75;2110279;28;20022;-79
2023/12/09 00:13:01;;;;;;;27.45;5.95;;;;;;;0.75;100.00;92784.59;2103494;28;20020;-78
2023/12/09 00:14:03;;;;;;;32.83;5.93;;;;;;;0.82;100.00;92785.75;2100578;28;20154;-78
2023/12/09 00:15:05;;;;;;;61.88;5.53;;;;;;;0.75;100.00;92783.81;2109072;28;20036;-82
2023/12/09 00:16:09;;;;;;;27.75;5.40;;;;;;;0.77;100.00;92783.47;2118075;27;20023;-80
2023/12/09 00:17:10;;;;;;;92.03;6.05;;;;;;;0.69;100.00;92785.25;2103051;28;20024;-80
2023/12/09 00:18:11;;;;;;;52.47;5.63;;;;;;;0.73;100.00;92789.44;2102579;28;20412;-80
2023/12/09 00:19:13;;;;;;;45.42;5.22;;;;;;;0.78;100.00;92783.09;2111636;28;20047;-80
2023/12/09 00:20:14;;;;;;;90.20;6.07;;;;;;;0.57;100.00;92783.66;2109324;28;20028;-79
2023/12/09 00:21:15;;;;;;;82.82;5.72;;;;;;;0.60;100.00;92793.44;2111107;28;20043;-79
2023/12/09 00:22:15;;;;;;;53.30;5.40;;;;;;;0.61;100.00;92788.94;2109398;28;20024;-81
2023/12/09 00:23:16;;;;;;;64.00;5.05;;;;;;;0.77;100.00;92789.47;2102412;28;20040;-80
2023/12/09 00:24:17;;;;;;;50.42;5.35;;;;;;;0.76;100.00;92790.59;2110049;28;20024;-78
2023/12/09 00:25:18;;;;;;;32.00;5.07;;;;;;;0.78;100.00;92790.97;2120760;27;20045;-81
2023/12/09 00:26:19;;;;;;;47.88;4.68;;;;;;;0.73;100.00;92788.69;2119091;27;20024;-80
2023/12/09 00:27:20;;;;;;;58.63;4.88;;;;;;;0.74;100.00;92793.56;2123227;27;20626;-80
2023/12/09 00:28:21;;;;;;;56.35;4.80;;;;;;;0.72;100.00;92793.19;2113141;27;20026;-78
2023/12/09 00:29:22;;;;;;;34.28;4.38;;;;;;;0.74;100.00;92796.19;2103536;28;20378;-82
2023/12/09 00:30:23;;;;;;;35.38;4.80;;;;;;;0.82;100.00;92799.66;2109461;28;20152;-79
2023/12/09 00:31:34;;;;;;;23.05;4.55;;;;;;;0.79;100.00;92807.50;2120655;27;20025;-78
2023/12/09 00:32:35;;;;;;;23.30;4.80;;;;;;;0.74;100.00;92796.19;2112231;28;20023;-78
2023/12/09 00:33:36;;;;;;;66.40;5.15;;;;;;;0.73;100.00;92805.22;2109205;28;20019;-79
2023/12/09 00:34:37;;;;;;;57.20;5.38;;;;;;;0.74;100.00;92800.72;2119122;27;20164;-80
2023/12/09 00:35:38;;;;;;;62.58;4.30;;;;;;;0.58;100.00;92798.31;2117195;27;20027;-77
2023/12/09 00:36:39;;;;;;;36.58;4.50;;;;;;;0.61;100.00;92794.94;2113437;28;20028;-78
2023/12/09 00:37:41;;;;;;;45.67;4.35;;;;;;;0.58;100.00;92790.41;2105036;28;20043;-79
2023/12/09 00:38:42;;;;;;;39.33;4.70;;;;;;;0.65;100.00;92794.97;2102040;28;20108;-80
2023/12/09 00:39:43;;;;;;;17.85;4.00;;;;;;;0.62;100.00;92791.22;2111210;28;20677;-79
2023/12/09 00:40:44;;;;;;;13.10;4.20;;;;;;;0.67;100.00;92790.88;2116204;27;20019;-77
2023/12/09 00:41:45;;;;;;;62.28;4.70;;;;;;;0.67;100.00;92790.88;2110882;28;20043;-81
2023/12/09 00:42:48;;;;;;;37.55;4.30;;;;;;;0.50;100.00;92794.09;2108671;28;20035;-76
2023/12/09 00:43:49;;;;;;;41.53;4.30;;;;;;;0.53;100.00;92797.84;2117747;27;20111;-79
2023/12/09 00:44:50;;;;;;;23.73;3.80;;;;;;;0.61;100.00;92786.31;2120078;27;20042;-77
2023/12/09 00:45:51;;;;;;;54.63;4.47;;;;;;;0.40;100.00;92778.97;2113568;28;20417;-77
2023/12/09 00:46:52;;;;;;;26.02;3.97;;;;;;;0.54;100.00;92779.09;2109868;28;20187;-79
2023/12/09 00:47:53;;;;;;;16.25;3.72;;;;;;;0.61;100.00;92781.03;2118165;27;20043;-77
2023/12/09 00:48:54;;;;;;;51.47;4.10;;;;;;;0.34;100.00;92781.13;2111227;28;20019;-78
2023/12/09 00:49:55;;;;;;;77.65;4.63;;;;;;;0.21;100.00;92777.25;2106486;28;20024;-82
2023/12/09 00:50:56;;;;;;;44.65;3.97;;;;;;;0.28;100.00;92771.31;2101355;28;20027;-78
2023/12/09 00:52:05;;;;;;;23.42;3.40;;;;;;;0.32;100.00;92780.75;2103374;28;20381;-79
2023/12/09 00:53:06;;;;;;;34.33;3.27;;;;;;;0.34;100.00;92778.50;2119744;27;20023;-77
2023/12/09 00:54:07;;;;;;;49.28;4.15;;;;;;;0.36;100.00;92771.03;2114020;27;20532;-80
2023/12/09 00:55:08;;;;;;;39.65;3.28;;;;;;;0.23;100.00;92788.16;2109922;28;20081;-77
2023/12/09 00:56:09;;;;;;;42.03;3.83;;;;;;;0.19;100.00;92788.13;2111541;28;20015;-77
2023/12/09 00:57:10;;;;;;;36.63;3.88;;;;;;;0.24;100.00;92792.31;2109439;28;20848;-78
2023/12/09 00:58:11;;;;;;;26.10;3.67;;;;;;;0.33;100.00;92790.16;2107335;28;20058;-79
2023/12/09 00:59:12;;;;;;;53.00;4.20;;;;;;;0.28;100.00;92785.22;2103251;28;20016;-79
2023/12/09 01:00:15;;;;;;;33.50;3.58;;;;;;;0.29;100.00;92797.22;2109567;28;20039;-78
2023/12/09 01:01:16;;;;;;;31.02;3.42;;;;;;;0.18;100.00;92791.88;2111431;28;20020;-80
2023/12/09 01:02:17;;;;;;;26.92;3.88;;;;;;;0.26;100.00;92800.56;2109065;28;20688;-79
2023/12/09 01:03:17;;;;;;;24.17;3.95;;;;;;;0.27;100.00;92798.72;2118681;27;20027;-81
2023/12/09 01:04:18;;;;;;;52.88;4.32;;;;;;;0.00;100.00;92801.41;2118025;27;20024;-80
2023/12/09 01:05:19;;;;;;;22.15;3.53;;;;;;;-0.13;100.00;92803.50;2111050;28;20012;-79
2023/12/09 01:06:20;;;;;;;26.20;4.00;;;;;;;0.07;100.00;92808.59;2093213;28;20449;-77
2023/12/09 01:07:21;;;;;;;30.73;3.83;;;;;;;0.04;100.00;92812.69;2100096;28;20021;-79
2023/12/09 01:08:23;;;;;;;24.02;3.80;;;;;;;0.16;100.00;92815.09;2119753;27;20678;-77
2023/12/09 01:09:24;;;;;;;19.17;3.90;;;;;;;0.09;100.00;92812.41;2122051;27;20596;-80
2023/12/09 01:10:25;;;;;;;25.52;3.80;;;;;;;0.19;100.00;92816.28;2118154;27;20445;-79
2023/12/09 01:11:27;;;;;;;32.08;4.25;;;;;;;0.25;100.00;92815.59;2118537;27;20038;-78
2023/12/09 01:12:28;;;;;;;35.65;4.07;;;;;;;0.28;100.00;92816.75;2107153;28;20019;-78
2023/12/09 01:13:30;;;;;;;37.33;4.07;;;;;;;0.17;100.00;92821.88;2111166;28;20024;-79
2023/12/09 01:14:31;;;;;;;16.58;3.90;;;;;;;0.26;100.00;92818.97;2108877;28;20030;-80
2023/12/09 01:15:32;;;;;;;23.33;3.88;;;;;;;0.28;100.00;92821.25;2104129;28;20024;-78
2023/12/09 01:16:33;;;;;;;21.27;3.65;;;;;;;0.25;100.00;92817.47;2120908;27;20034;-79
2023/12/09 01:17:34;;;;;;;45.50;4.22;;;;;;;0.22;100.00;92815.53;2109319;28;20102;-77
2023/12/09 01:18:35;;;;;;;22.05;3.95;;;;;;;0.24;100.00;92815.94;2108196;27;20015;-78
2023/12/09 01:19:35;;;;;;;13.50;3.72;;;;;;;0.31;100.00;92826.56;2120685;27;20038;-77
2023/12/09 01:20:37;;;;;;;39.55;4.20;;;;;;;0.25;100.00;92823.47;2111053;28;20055;-82
2023/12/09 01:21:38;;;;;;;27.25;3.53;;;;;;;0.23;100.00;92828.34;2102208;28;20048;-78
2023/12/09 01:22:39;;;;;;;24.25;3.70;;;;;;;0.29;100.00;92825.41;2100524;28;20027;-79
2023/12/09 01:23:46;;;;;;;23.17;3.92;;;;;;;0.38;100.00;92834.50;2108634;28;20043;-78
2023/12/09 01:24:47;;;;;;;26.50;4.03;;;;;;;0.32;100.00;92824.69;2119253;27;20371;-79
2023/12/09 01:25:48;;;;;;;31.13;3.75;;;;;;;0.31;100.00;92829.19;2119449;27;20027;-77
2023/12/09 01:26:52;;;;;;;22.98;3.58;;;;;;;0.08;100.00;92828.50;2119444;27;20472;-79
2023/12/09 01:27:53;;;;;;;19.20;3.42;;;;;;;0.23;100.00;92819.69;2112029;28;20055;-77
2023/12/09 01:28:54;;;;;;;14.85;3.70;;;;;;;0.27;100.00;92817.13;2104660;28;20020;-81
2023/12/09 01:29:55;;;;;;;23.25;3.63;;;;;;;0.18;100.00;92818.16;2109176;28;20669;-79
2023/12/09 01:30:56;;;;;;;17.67;3.53;;;;;;;0.04;100.00;92823.19;2102731;28;20474;-78
2023/12/09 01:31:57;;;;;;;24.48;3.85;;;;;;;0.12;100.00;92822.19;2100858;28;20119;-79
2023/12/09 01:32:58;;;;;;;12.00;3.55;;;;;;;0.24;100.00;92827.22;2108700;28;20054;-79
2023/12/09 01:33:59;;;;;;;10.98;3.45;;;;;;;0.21;100.00;92829.81;2103130;28;20020;-80
2023/12/09 01:35:00;;;;;;;11.48;3.78;;;;;;;0.19;100.00;92832.78;2111378;28;20023;-77
2023/12/09 01:36:01;;;;;;;18.50;3.60;;;;;;;0.19;100.00;92839.94;2102382;28;20514;-76
2023/12/09 01:37:03;;;;;;;18.42;3.72;;;;;;;0.33;100.00;92831.44;2100995;28;20163;-78
2023/12/09 01:38:03;;;;;;;8.40;3.80;;;;;;;0.30;100.00;92837.41;2100168;28;20509;-80
2023/12/09 01:39:04;;;;;;;10.57;3.22;;;;;;;0.09;100.00;92836.06;2108461;28;20062;-80
2023/12/09 01:40:06;;;;;;;4.32;3.55;;;;;;;0.21;100.00;92840.31;2112124;28;20023;-79
2023/12/09 01:41:07;;;;;;;10.82;3.88;;;;;;;0.24;100.00;92843.00;2109014;28;20641;-77
2023/12/09 01:42:09;;;;;;;9.18;3.42;;;;;;;0.15;100.00;92841.75;2108540;28;20055;-79
2023/12/09 01:43:11;;;;;;;12.05;3.70;;;;;;;0.20;100.00;92844.81;2108124;28;20046;-79
2023/12/09 01:44:12;;;;;;;12.27;3.47;;;;;;;0.00;100.00;92840.81;2113017;28;20027;-80
2023/12/09 01:45:13;;;;;;;15.85;3.78;;;;;;;-0.01;100.00;92847.16;2109645;28;20022;-79
2023/12/09 01:46:16;;;;;;;15.82;3.85;;;;;;;0.01;100.00;92846.81;2107241;28;20030;-78
2023/12/09 01:47:17;;;;;;;29.35;3.58;;;;;;;-0.11;100.00;92842.53;2097902;28;20098;-80
2023/12/09 01:48:19;;;;;;;11.25;3.22;;;;;;;-0.05;100.00;92828.72;2094987;28;21004;-78
2023/12/09 01:49:20;;;;;;;17.63;3.50;;;;;;;-0.07;100.00;92838.09;2107558;28;20146;-79
2023/12/09 01:50:21;;;;;;;24.48;3.53;;;;;;;0.24;100.00;92829.84;2107762;28;20106;-78
2023/12/09 01:51:23;;;;;;;19.63;3.35;;;;;;;0.29;100.00;92836.66;2108676;28;20049;-79
2023/12/09 01:52:24;;;;;;;18.75;3.38;;;;;;;0.08;100.00;92831.13;2106531;28;20024;-79
2023/12/09 01:53:25;;;;;;;23.50;3.30;;;;;;;0.24;100.00;92840.38;2104016;28;20032;-80
2023/12/09 01:54:27;;;;;;;17.60;3.35;;;;;;;0.17;100.00;92840.25;2102150;28;20323;-79
2023/12/09 01:55:28;;;;;;;8.55;3.22;;;;;;;0.28;100.00;92839.66;2102952;28;20400;-83
2023/12/09 01:56:30;;;;;;;11.00;3.05;;;;;;;0.43;100.00;92854.47;2111215;28;20424;-79
2023/12/09 01:57:31;;;;;;;23.23;3.50;;;;;;;0.35;100.00;92851.03;2106103;28;20064;-79
2023/12/09 01:58:35;;;;;;;9.57;3.10;;;;;;;0.34;100.00;92854.00;2110863;28;20038;-77
2023/12/09 01:59:36;;;;;;;9.43;3.05;;;;;;;0.45;100.00;92855.63;2109806;28;20031;-78
2023/12/09 02:00:39;;;;;;;10.50;2.97;;;;;;;0.37;100.00;92854.03;2111312;28;20475;-79
2023/12/09 02:01:44;;;;;;;12.10;2.88;;;;;;;0.30;100.00;92861.81;2107704;28;20051;-77
2023/12/09 02:02:46;;;;;;;11.15;3.00;;;;;;;0.25;100.00;92860.28;2108602;28;20015;-79
2023/12/09 02:03:49;;;;;;;13.73;2.83;;;;;;;0.33;100.00;92868.25;2109285;28;20032;-78
2023/12/09 02:04:52;;;;;;;13.57;3.30;;;;;;;0.28;100.00;92871.19;2110096;28;20028;-79
2023/12/09 02:05:53;;;;;;;19.42;3.40;;;;;;;0.18;100.00;92854.19;2108214;28;20038;-79
2023/12/09 02:06:54;;;;;;;28.38;3.40;;;;;;;0.23;100.00;92851.25;2109716;28;20106;-79
2023/12/09 02:07:55;;;;;;;10.77;2.88;;;;;;;0.03;100.00;92847.97;2110058;28;20396;-78
2023/12/09 02:09:09;;;;;;;22.08;2.95;;;;;;;0.02;100.00;92854.34;2109720;28;20061;-78
2023/12/09 02:10:10;;;;;;;12.88;3.03;;;;;;;0.12;100.00;92858.22;2108491;28;20020;-76
2023/12/09 02:11:38;;;;;;;15.15;3.00;;;;;;;0.17;100.00;92860.53;2112123;28;20020;-76
2023/12/09 02:12:51;;;;;;;12.60;2.80;;;;;;;0.16;100.00;92853.78;2111301;28;20824;-77
2023/12/09 02:13:57;;;;;;;14.55;3.17;;;;;;;0.10;100.00;92850.69;2105777;28;20102;-78
2023/12/09 02:15:14;;;;;;;13.95;2.80;;;;;;;0.27;100.00;92848.66;2109362;28;20046;-77
2023/12/09 02:16:20;;;;;;;10.15;3.28;;;;;;;0.18;100.00;92854.19;2110462;28;20062;-77
2023/12/09 02:17:36;;;;;;;5.35;2.47;;;;;;;0.22;100.00;92850.50;2110382;28;20027;-77
2023/12/09 02:18:39;;;;;;;4.07;2.88;;;;;;;0.27;100.00;92846.78;2109791;28;20076;-78
2023/12/09 02:19:41;;;;;;;2.70;2.50;;;;;;;0.36;100.00;92839.38;2109333;28;20057;-81
2023/12/09 02:20:42;;;;;;;3.50;2.97;;;;;;;0.46;100.00;92846.63;2109564;28;20108;-76
2023/12/09 02:22:04;;;;;;;5.10;3.08;;;;;;;0.40;100.00;92842.06;2109564;28;20020;-79
2023/12/09 02:24:49;;;;;;;5.78;2.40;;;;;;;-0.26;100.00;92839.72;2120872;27;20165;-77
2023/12/09 02:25:54;;;;;;;6.75;2.70;;;;;;;-0.10;100.00;92838.78;2115703;27;20096;-81
2023/12/09 02:27:00;;;;;;;3.08;2.70;;;;;;;-0.14;100.00;92833.47;2119109;28;20027;-78
2023/12/09 02:28:09;;;;;;;17.38;2.85;;;;;;;-0.20;100.00;92831.53;2107193;28;20114;-78
2023/12/09 02:29:11;;;;;;;8.35;2.42;;;;;;;-0.18;100.00;92830.03;2110310;28;20115;-79
2023/12/09 02:30:54;;;;;;;13.88;2.92;;;;;;;-0.27;100.00;92825.06;2116861;28;20047;-77
2023/12/09 02:32:02;;;;;;;6.00;2.90;;;;;;;-0.15;100.00;92818.84;2110548;28;20512;-79
2023/12/09 02:33:07;;;;;;;8.73;3.30;;;;;;;-0.11;100.00;92819.66;2114768;27;20058;-79
2023/12/09 02:34:09;;;;;;;11.27;2.60;;;;;;;-0.12;100.00;92815.50;2116144;28;20016;-80
2023/12/09 02:35:12;;;;;;;8.27;2.70;;;;;;;-0.08;100.00;92808.44;2120745;28;20024;-82
2023/12/09 02:36:18;;;;;;;8.10;3.25;;;;;;;-0.04;100.00;92809.25;2120883;28;20015;-81
2023/12/09 02:37:21;;;;;;;8.98;2.80;;;;;;;-0.15;100.00;92808.34;2114646;28;20022;-81
2023/12/09 02:38:24;;;;;;;7.28;2.58;;;;;;;-0.09;100.00;92801.69;2119759;28;20050;-78
2023/12/09 02:39:25;;;;;;;3.53;2.50;;;;;;;0.00;100.00;92806.66;2113376;28;20544;-82
2023/12/09 02:40:28;;;;;;;3.63;2.72;;;;;;;0.03;100.00;92803.31;2107637;28;20019;-78
2023/12/09 02:41:31;;;;;;;5.75;2.45;;;;;;;-0.05;100.00;92801.69;2115923;28;20039;-78
2023/12/09 02:42:32;;;;;;;4.90;3.08;;;;;;;-0.07;100.00;92799.44;2115686;28;20072;-80
2023/12/09 02:43:33;;;;;;;6.45;2.70;;;;;;;-0.28;100.00;92799.91;2117920;28;20023;-79
2023/12/09 02:44:34;;;;;;;3.55;2.53;;;;;;;-0.18;100.00;92805.66;2112124;28;20023;-79
2023/12/09 02:45:36;;;;;;;3.33;2.70;;;;;;;-0.09;100.00;92795.63;2111692;28;20035;-79
2023/12/09 02:46:37;;;;;;;2.85;2.38;;;;;;;-0.15;100.00;92797.81;2117787;28;20519;-80
2023/12/09 02:47:38;;;;;;;3.35;2.78;;;;;;;0.01;100.00;92794.28;2117262;28;20051;-79
2023/12/09 02:48:40;;;;;;;2.90;2.60;;;;;;;-0.14;100.00;92793.31;2108717;28;20602;-76
2023/12/09 02:49:43;;;;;;;3.45;2.83;;;;;;;-0.04;100.00;92800.59;2109301;28;20019;-78
2023/12/09 02:50:44;;;;;;;3.72;2.70;;;;;;;0.05;100.00;92800.34;2113799;28;20016;-79
2023/12/09 02:51:45;;;;;;;4.85;2.95;;;;;;;0.14;100.00;92798.19;2117526;28;20026;-83
2023/12/09 02:52:46;;;;;;;4.97;2.60;;;;;;;0.07;100.00;92798.09;2112824;28;20053;-79
2023/12/09 02:53:47;;;;;;;4.53;2.70;;;;;;;0.02;100.00;92795.78;2115167;28;20023;-77
2023/12/09 02:54:48;;;;;;;3.97;2.58;;;;;;;-0.03;100.00;92784.47;2120978;28;20019;-79
2023/12/09 02:55:49;;;;;;;4.15;2.92;;;;;;;-0.05;100.00;92781.44;2117546;28;20097;-78
2023/12/09 02:56:51;;;;;;;5.55;2.95;;;;;;;-0.19;100.00;92783.88;2113320;28;20114;-77
2023/12/09 02:57:52;;;;;;;4.35;2.63;;;;;;;-0.10;100.00;92786.25;2117772;28;20672;-80
2023/12/09 02:58:53;;;;;;;15.23;3.40;;;;;;;-0.23;100.00;92804.09;2118715;28;20030;-78
2023/12/09 02:59:54;;;;;;;4.30;2.83;;;;;;;0.03;100.00;92797.28;2118576;27;20028;-76
2023/12/09 03:00:55;;;;;;;5.43;2.83;;;;;;;0.05;100.00;92803.72;2116476;28;20038;-79
2023/12/09 03:01:57;;;;;;;5.25;2.63;;;;;;;0.01;100.00;92812.66;2116672;28;20113;-80
2023/12/09 03:02:58;;;;;;;5.20;3.08;;;;;;;-0.04;100.00;92805.88;2117694;28;20054;-78
2023/12/09 03:03:59;;;;;;;3.70;2.70;;;;;;;-0.02;100.00;92795.75;2114575;28;20468;-77
2023/12/09 03:05:00;;;;;;;4.28;2.92;;;;;;;0.00;100.00;92801.41;2118791;28;20023;-78
2023/12/09 03:06:00;;;;;;;4.20;2.90;;;;;;;-0.04;100.00;92797.97;2117676;28;20047;-77
2023/12/09 03:07:01;;;;;;;8.52;3.35;;;;;;;-0.23;100.00;92795.47;2118821;28;20057;-79
2023/12/09 03:08:02;;;;;;;5.43;3.10;;;;;;;-0.13;100.00;92790.38;2120396;28;20650;-77
2023/12/09 03:09:03;;;;;;;8.45;3.20;;;;;;;-0.13;100.00;92786.94;2119440;28;20042;-79
2023/12/09 03:10:08;;;;;;;4.65;3.17;;;;;;;-0.04;100.00;92790.09;2116692;28;20020;-78
2023/12/09 03:11:09;;;;;;;4.55;3.78;;;;;;;-0.05;100.00;92788.56;2114151;28;20089;-76
2023/12/09 03:12:10;;;;;;;4.75;3.15;;;;;;;-0.10;100.00;92789.63;2116455;28;20999;-78
2023/12/09 03:13:11;;;;;;;3.88;3.05;;;;;;;-0.02;100.00;92793.13;2117938;28;20471;-79
2023/12/09 03:14:12;;;;;;;5.55;3.40;;;;;;;-0.06;100.00;92795.69;2117909;28;20019;-79
2023/12/09 03:15:14;;;;;;;8.88;3.03;;;;;;;0.01;100.00;92797.66;2117883;27;20456;-79
2023/12/09 03:16:15;;;;;;;6.38;3.15;;;;;;;-0.02;100.00;92795.75;2119344;27;20020;-76
2023/12/09 03:17:19;;;;;;;5.35;2.67;;;;;;;0.11;100.00;92794.41;2115709;27;20438;-82
2023/12/09 03:18:20;;;;;;;4.35;2.88;;;;;;;0.17;100.00;92792.22;2112586;28;20016;-79
2023/12/09 03:19:21;;;;;;;2.90;2.60;;;;;;;0.18;100.00;92793.75;2101103;28;20024;-79
2023/12/09 03:20:22;;;;;;;3.60;2.67;;;;;;;0.19;100.00;92788.13;2111812;28;20118;-76
2023/12/09 03:21:22;;;;;;;3.33;2.67;;;;;;;-0.15;100.00;92778.69;2114579;28;20543;-75
2023/12/09 03:22:23;;;;;;;2.88;2.60;;;;;;;0.10;100.00;92787.63;2112637;28;20618;-79
2023/12/09 03:23:24;;;;;;;3.35;2.97;;;;;;;0.12;100.00;92785.41;2117126;28;20056;-76
2023/12/09 03:24:25;;;;;;;3.78;2.60;;;;;;;0.13;100.00;92784.31;2122072;27;20139;-77
2023/12/09 03:25:26;;;;;;;2.80;2.55;;;;;;;0.17;100.00;92779.06;2123466;27;20031;-76
2023/12/09 03:26:27;;;;;;;3.83;2.88;;;;;;;0.15;100.00;92781.31;2118293;27;20028;-78
2023/12/09 03:27:28;;;;;;;3.50;2.80;;;;;;;0.18;100.00;92781.34;2120844;27;20589;-78
2023/12/09 03:28:29;;;;;;;3.40;2.85;;;;;;;0.15;100.00;92779.44;2124475;27;20027;-78
2023/12/09 03:29:30;;;;;;;2.95;2.60;;;;;;;0.04;100.00;92783.03;2122169;27;20447;-79
2023/12/09 03:30:31;;;;;;;3.30;2.70;;;;;;;0.07;100.00;92769.94;2113203;28;20023;-78
2023/12/09 03:31:32;;;;;;;2.75;2.50;;;;;;;0.06;100.00;92770.31;2103884;28;20022;-78
2023/12/09 03:32:33;;;;;;;3.65;2.83;;;;;;;0.18;100.00;92772.72;2121831;27;20019;-77
2023/12/09 03:33:34;;;;;;;3.20;2.50;;;;;;;0.35;100.00;92766.13;2123234;27;20029;-77
2023/12/09 03:34:35;;;;;;;4.63;2.75;;;;;;;0.28;100.00;92772.06;2124741;27;20352;-78
2023/12/09 03:35:36;;;;;;;3.05;2.75;;;;;;;0.32;100.00;92772.88;2105465;28;20062;-78
2023/12/09 03:36:46;;;;;;;3.45;3.05;;;;;;;0.37;100.00;92771.78;2110176;28;20097;-81
2023/12/09 03:37:46;;;;;;;3.83;2.90;;;;;;;0.36;100.00;92768.41;2113941;28;20039;-79
2023/12/09 03:38:47;;;;;;;3.70;2.80;;;;;;;0.13;100.00;92765.91;2119513;27;20080;-76
2023/12/09 03:39:49;;;;;;;2.58;2.38;;;;;;;0.28;100.00;92764.19;2117335;27;20098;-77
2023/12/09 03:40:50;;;;;;;3.28;2.65;;;;;;;0.21;100.00;92758.84;2113658;27;20021;-75
2023/12/09 03:41:51;;;;;;;3.08;2.78;;;;;;;0.21;100.00;92756.22;2113343;27;20478;-76
2023/12/09 03:42:51;;;;;;;3.38;2.90;;;;;;;0.20;100.00;92760.72;2118736;27;20027;-78
2023/12/09 03:43:52;;;;;;;3.15;2.80;;;;;;;0.20;100.00;92759.97;2116914;27;20023;-76
2023/12/09 03:44:53;;;;;;;4.90;2.70;;;;;;;0.16;100.00;92751.28;2107450;28;20127;-79
2023/12/09 03:45:54;;;;;;;3.20;2.55;;;;;;;0.30;100.00;92750.69;2107424;28;20476;-77
2023/12/09 03:46:55;;;;;;;3.78;2.50;;;;;;;0.43;100.00;92757.19;2108713;28;20383;-77
2023/12/09 03:47:56;;;;;;;2.72;2.47;;;;;;;0.45;100.00;92750.47;2107371;28;20103;-76
2023/12/09 03:48:57;;;;;;;4.13;2.80;;;;;;;0.46;100.00;92753.84;2118723;27;20282;-77
2023/12/09 03:49:58;;;;;;;3.17;2.70;;;;;;;0.37;100.00;92751.50;2114320;27;20099;-77
2023/12/09 03:51:00;;;;;;;3.83;2.22;;;;;;;0.24;100.00;92748.38;2107191;28;20561;-78
2023/12/09 03:52:01;;;;;;;3.83;2.80;;;;;;;0.35;100.00;92747.72;2113097;27;20039;-80
2023/12/09 03:53:02;;;;;;;3.10;2.75;;;;;;;0.29;100.00;92749.91;2116115;27;20023;-80
2023/12/09 03:54:03;;;;;;;2.58;2.38;;;;;;;0.39;100.00;92759.78;2115580;27;20483;-76
2023/12/09 03:55:06;;;;;;;3.67;2.88;;;;;;;0.32;100.00;92754.47;2105783;28;20062;-77
2023/12/09 03:56:08;;;;;;;3.67;2.70;;;;;;;0.18;100.00;92749.81;2100268;28;20024;-76
2023/12/09 03:57:12;;;;;;;3.53;2.78;;;;;;;0.18;100.00;92755.06;2103518;28;20027;-79
2023/12/09 03:58:13;;;;;;;3.72;2.80;;;;;;;0.42;100.00;92761.69;2105784;28;20639;-80
2023/12/09 03:59:14;;;;;;;2.58;2.25;;;;;;;0.44;100.00;92758.69;2110626;28;20020;-76
2023/12/09 04:00:15;;;;;;;5.28;2.97;;;;;;;0.35;100.00;92766.91;2118751;27;20046;-79
2023/12/09 04:01:16;;;;;;;4.00;2.70;;;;;;;0.48;100.00;92762.91;2117947;27;20024;-78
2023/12/09 04:02:18;;;;;;;3.33;2.78;;;;;;;0.34;100.00;92754.84;2116575;27;20084;-76
2023/12/09 04:03:19;;;;;;;3.55;2.60;;;;;;;0.41;100.00;92770.72;2113406;27;20016;-78
2023/12/09 04:04:20;;;;;;;3.60;2.75;;;;;;;0.43;100.00;92757.94;2111926;27;20039;-80
2023/12/09 04:05:21;;;;;;;2.70;2.50;;;;;;;0.46;100.00;92765.13;2114323;28;20044;-77
2023/12/09 04:06:22;;;;;;;3.35;2.65;;;;;;;0.41;100.00;92760.19;2115534;27;20024;-77
2023/12/09 04:07:23;;;;;;;3.70;2.80;;;;;;;0.36;100.00;92765.03;2117344;27;20034;-74
2023/12/09 04:08:24;;;;;;;2.72;2.35;;;;;;;0.30;100.00;92761.94;2114403;27;20030;-78
2023/12/09 04:09:25;;;;;;;3.58;2.65;;;;;;;0.20;100.00;92773.09;2117096;27;20856;-76
2023/12/09 04:10:26;;;;;;;3.00;2.65;;;;;;;0.28;100.00;92763.44;2116464;27;20023;-77
2023/12/09 04:11:27;;;;;;;3.75;3.00;;;;;;;0.23;100.00;92765.25;2116420;27;20691;-79
2023/12/09 04:12:28;;;;;;;3.15;2.80;;;;;;;0.26;100.00;92766.41;2117718;27;20019;-78
2023/12/09 04:13:29;;;;;;;3.60;2.60;;;;;;;0.30;100.00;92769.06;2114751;27;20361;-76
2023/12/09 04:14:30;;;;;;;6.32;3.38;;;;;;;0.31;100.00;92766.09;2114943;27;20031;-78
2023/12/09 04:15:31;;;;;;;2.92;2.63;;;;;;;0.33;100.00;92763.88;2116655;27;20011;-76
2023/12/09 04:16:32;;;;;;;3.58;2.67;;;;;;;0.36;100.00;92765.78;2116730;27;20039;-77
2023/12/09 04:17:33;;;;;;;4.65;2.80;;;;;;;0.21;100.00;92764.09;2114694;27;20027;-77
2023/12/09 04:18:36;;;;;;;3.58;2.88;;;;;;;0.41;100.00;92765.47;2107210;28;20024;-79
2023/12/09 04:19:36;;;;;;;3.15;2.60;;;;;;;0.43;100.00;92760.56;2113729;27;20085;-76
2023/12/09 04:20:38;;;;;;;3.50;2.70;;;;;;;0.39;100.00;92767.66;2115359;27;20075;-77
2023/12/09 04:21:39;;;;;;;3.22;2.90;;;;;;;0.37;100.00;92767.28;2106682;28;20024;-80
2023/12/09 04:22:42;;;;;;;3.55;2.65;;;;;;;0.18;100.00;92767.47;2109356;28;20095;-78
2023/12/09 04:23:44;;;;;;;2.42;2.25;;;;;;;0.17;100.00;92763.31;2116190;27;20031;-75
2023/12/09 04:24:45;;;;;;;3.50;2.50;;;;;;;0.26;100.00;92766.41;2118567;27;20069;-77
2023/12/09 04:25:46;;;;;;;2.38;2.17;;;;;;;0.27;100.00;92765.31;2118190;27;20341;-75
2023/12/09 04:26:47;;;;;;;3.00;2.35;;;;;;;0.49;100.00;92769.66;2117487;27;20019;-76
2023/12/09 04:27:48;;;;;;;2.50;2.30;;;;;;;0.40;100.00;92766.56;2112073;28;20023;-76
2023/12/09 04:28:49;;;;;;;2.67;2.28;;;;;;;0.42;100.00;92769.59;2118748;27;20018;-77
2023/12/09 04:29:51;;;;;;;2.75;2.13;;;;;;;0.42;100.00;92766.97;2116030;27;20022;-76
2023/12/09 04:30:51;;;;;;;2.83;2.50;;;;;;;0.46;100.00;92767.00;2122635;27;20023;-77
2023/12/09 04:31:53;;;;;;;3.03;2.60;;;;;;;0.40;100.00;92756.06;2124571;27;20073;-78
2023/12/09 04:32:53;;;;;;;2.85;2.50;;;;;;;0.41;100.00;92764.69;2113933;28;20085;-79
2023/12/09 04:33:54;;;;;;;2.33;2.13;;;;;;;0.38;100.00;92760.16;2116654;27;20032;-78
2023/12/09 04:34:56;;;;;;;2.85;2.50;;;;;;;0.69;100.00;92764.22;2116031;27;20019;-75
2023/12/09 04:35:57;;;;;;;3.10;2.53;;;;;;;0.61;100.00;92762.63;2116522;27;20023;-77
2023/12/09 04:37:04;;;;;;;3.13;2.55;;;;;;;0.50;100.00;92758.03;2116562;27;20019;-78
2023/12/09 04:38:05;;;;;;;2.55;2.17;;;;;;;0.42;100.00;92756.44;2114684;27;20368;-77
2023/12/09 04:39:07;;;;;;;3.60;2.28;;;;;;;0.59;100.00;92762.25;2116111;27;20032;-77
2023/12/09 04:40:10;;;;;;;2.30;2.08;;;;;;;0.69;100.00;92758.97;2112758;27;20019;-81
2023/12/09 04:41:14;;;;;;;2.97;2.17;;;;;;;0.57;100.00;92764.47;2114134;27;20020;-76
2023/12/09 04:42:15;;;;;;;3.80;2.13;;;;;;;0.55;100.00;92766.72;2115770;27;20655;-80
2023/12/09 04:43:16;;;;;;;2.80;2.40;;;;;;;0.57;100.00;92765.25;2115910;27;20035;-79
2023/12/09 04:44:17;;;;;;;2.55;2.13;;;;;;;0.56;100.00;92765.59;2114247;28;20026;-77
2023/12/09 04:45:18;;;;;;;3.58;2.17;;;;;;;0.44;100.00;92761.34;2116701;27;20471;-77
2023/12/09 04:46:19;;;;;;;4.03;2.05;;;;;;;0.41;100.00;92756.81;2114674;27;20028;-76
2023/12/09 04:47:21;;;;;;;2.30;2.10;;;;;;;0.47;100.00;92758.75;2116267;28;20038;-77
2023/12/09 04:48:22;;;;;;;2.30;1.92;;;;;;;0.45;100.00;92758.38;2117122;27;20015;-77
2023/12/09 04:49:24;;;;;;;2.90;2.05;;;;;;;0.50;100.00;92762.53;2115986;27;20019;-79
2023/12/09 04:50:25;;;;;;;4.25;1.88;;;;;;;0.52;100.00;92757.66;2115496;27;20011;-78
2023/12/09 04:51:26;;;;;;;2.47;2.10;;;;;;;0.46;100.00;92764.38;2113643;27;20039;-76
2023/12/09 04:52:28;;;;;;;3.30;2.08;;;;;;;0.54;100.00;92773.84;2114644;27;20026;-77